Time;durP1;ratioP1;P1;durP2;ratioP2;P2;SDS_P1;SDS_P2;PMS_P1;PMS_P2;Temp;Humidity;BMP_temperature;BMP_pressure;BME280_temperature;BME280_humidity;BME280_pressure;Samples;Min_cycle;Max_cycle;Signal;HPM_P1;HPM_P2
2022/04/26 03:36:49;;;;;;;13.32;4.40;;;;;;;8.12;100.00;101560.44;5193126;28;20404;-69
2022/04/26 03:39:19;;;;;;;8.95;4.35;;;;;;;8.12;100.00;101561.28;5195778;28;20021;-69
2022/04/26 03:41:50;;;;;;;8.25;4.57;;;;;;;8.17;100.00;101566.22;5204882;28;20117;-69
2022/04/26 03:44:20;;;;;;;9.00;4.28;;;;;;;8.28;100.00;101561.66;5203916;28;20021;-69
2022/04/26 03:46:51;;;;;;;5.45;4.00;;;;;;;8.21;100.00;101563.16;5204482;28;20033;-69
2022/04/26 03:49:22;;;;;;;7.95;4.22;;;;;;;8.15;100.00;101574.41;5204029;28;20033;-69
2022/04/26 03:51:53;;;;;;;10.35;4.18;;;;;;;8.14;100.00;101567.34;5204506;28;20049;-69
2022/04/26 03:54:24;;;;;;;13.80;4.28;;;;;;;8.14;100.00;101570.03;5204277;28;20485;-69
2022/04/26 03:56:54;;;;;;;9.27;3.92;;;;;;;8.17;100.00;101576.91;5204566;28;20021;-69
2022/04/26 03:59:25;;;;;;;8.63;4.57;;;;;;;8.19;100.00;101575.81;5204359;28;20028;-69
2022/04/26 04:01:56;;;;;;;9.52;4.35;;;;;;;8.11;100.00;101574.78;5204223;28;20029;-69
2022/04/26 04:04:26;;;;;;;7.28;4.18;;;;;;;8.22;100.00;101574.69;5204024;28;20029;-69
2022/04/26 04:06:57;;;;;;;6.97;4.10;;;;;;;8.17;100.00;101579.59;5204211;28;20112;-69
2022/04/26 04:09:27;;;;;;;7.47;4.15;;;;;;;8.13;100.00;101576.34;5204352;28;20509;-69
2022/04/26 04:11:57;;;;;;;10.88;4.85;;;;;;;8.14;100.00;101574.53;5203975;28;20406;-69
2022/04/26 04:14:28;;;;;;;7.60;3.85;;;;;;;8.14;100.00;101569.19;5203759;28;20021;-69
2022/04/26 04:16:59;;;;;;;11.90;4.45;;;;;;;8.14;100.00;101575.38;5203996;28;20032;-69
2022/04/26 04:19:30;;;;;;;8.13;4.70;;;;;;;8.17;100.00;101571.56;5204097;28;20067;-69
2022/04/26 04:22:00;;;;;;;9.45;4.30;;;;;;;8.14;100.00;101579.88;5204050;28;20036;-69
2022/04/26 04:24:32;;;;;;;9.32;4.72;;;;;;;8.14;100.00;101580.72;5203694;28;20100;-69
2022/04/26 04:27:04;;;;;;;6.85;4.35;;;;;;;8.09;100.00;101579.44;5203753;28;20033;-69
2022/04/26 04:29:35;;;;;;;7.22;4.50;;;;;;;8.02;100.00;101590.63;5204071;28;20109;-69
2022/04/26 04:32:05;;;;;;;10.35;4.82;;;;;;;8.01;100.00;101588.94;5203998;28;20104;-69
2022/04/26 04:34:36;;;;;;;8.45;4.35;;;;;;;8.00;100.00;101597.94;5203816;28;20498;-69
2022/04/26 04:37:08;;;;;;;8.93;4.55;;;;;;;8.03;100.00;101595.00;5191156;28;20030;-69
2022/04/26 04:39:38;;;;;;;9.98;5.03;;;;;;;7.99;100.00;101611.44;5201787;28;20113;-69
2022/04/26 04:42:09;;;;;;;8.68;5.15;;;;;;;8.01;100.00;101615.66;5208254;28;20021;-69
2022/04/26 04:44:39;;;;;;;12.32;4.97;;;;;;;7.99;100.00;101617.63;5208002;28;20031;-69
2022/04/26 04:47:09;;;;;;;10.73;5.05;;;;;;;7.99;100.00;101614.97;5208160;28;20021;-68
2022/04/26 04:49:40;;;;;;;13.65;4.90;;;;;;;7.98;100.00;101620.41;5208295;28;20108;-69
2022/04/26 04:52:11;;;;;;;11.98;4.93;;;;;;;7.94;100.00;101619.84;5208319;28;20310;-69
2022/04/26 04:54:41;;;;;;;7.93;4.68;;;;;;;7.98;100.00;101621.28;5207870;28;20028;-68
2022/04/26 04:57:11;;;;;;;9.75;4.88;;;;;;;7.94;100.00;101627.00;5208082;28;20029;-69
2022/04/26 04:59:42;;;;;;;9.65;5.22;;;;;;;7.92;100.00;101621.78;5207815;28;20100;-69
2022/04/26 05:02:12;;;;;;;11.13;5.75;;;;;;;7.91;100.00;101636.13;5207697;28;20044;-69
2022/04/26 05:04:43;;;;;;;13.13;5.55;;;;;;;7.87;100.00;101634.69;5207636;28;20120;-69
2022/04/26 05:07:13;;;;;;;10.43;5.18;;;;;;;7.89;100.00;101638.09;5207595;28;20044;-69
2022/04/26 05:09:44;;;;;;;11.27;4.78;;;;;;;7.91;100.00;101640.63;5207749;28;20389;-70
2022/04/26 05:12:14;;;;;;;10.60;4.53;;;;;;;7.93;100.00;101646.66;5207652;28;20120;-69
2022/04/26 05:14:45;;;;;;;11.52;5.20;;;;;;;7.96;100.00;101652.59;5206739;28;20025;-69
2022/04/26 05:17:15;;;;;;;9.23;4.43;;;;;;;7.97;100.00;101651.63;5206094;28;20116;-69
2022/04/26 05:19:46;;;;;;;11.43;5.35;;;;;;;8.01;100.00;101655.75;5207607;28;20025;-69
2022/04/26 05:22:16;;;;;;;11.82;4.47;;;;;;;8.02;100.00;101654.75;5207370;28;20084;-69
2022/04/26 05:27:35;;;;;;;13.45;5.57;;;;;;;8.09;100.00;101660.44;5207230;28;20121;-69
2022/04/26 05:30:06;;;;;;;13.57;5.15;;;;;;;8.16;100.00;101663.44;5206023;28;20522;-69
2022/04/26 05:32:37;;;;;;;10.13;4.65;;;;;;;8.17;100.00;101655.28;5207429;28;20029;-69
2022/04/26 05:35:07;;;;;;;9.40;4.95;;;;;;;8.17;100.00;101660.63;5207004;28;20025;-70
2022/04/26 05:37:38;;;;;;;11.70;5.60;;;;;;;8.19;100.00;101663.19;5195808;28;20033;-69
2022/04/26 05:40:09;;;;;;;8.02;4.53;;;;;;;8.14;100.00;101666.25;5204645;28;20041;-69
2022/04/26 05:42:40;;;;;;;13.48;4.25;;;;;;;8.20;100.00;101659.53;5205954;28;20021;-69
2022/04/26 05:45:10;;;;;;;8.13;4.93;;;;;;;8.21;100.00;101661.22;5206049;28;20079;-69
2022/04/26 05:47:42;;;;;;;8.88;4.35;;;;;;;8.19;100.00;101658.69;5206895;28;20356;-69
2022/04/26 05:50:13;;;;;;;10.43;4.68;;;;;;;8.19;100.00;101664.03;5205620;28;20116;-69
2022/04/26 05:52:43;;;;;;;10.00;4.43;;;;;;;8.15;100.00;101659.06;5206838;28;20104;-70
2022/04/26 05:55:14;;;;;;;7.05;4.47;;;;;;;8.22;100.00;101665.59;5205536;28;20453;-69
2022/04/26 05:57:45;;;;;;;13.98;4.60;;;;;;;8.22;100.00;101670.94;5207131;28;20379;-69
2022/04/26 06:00:16;;;;;;;12.88;4.88;;;;;;;8.22;100.00;101671.78;5206459;28;20060;-70
2022/04/26 06:02:48;;;;;;;9.63;4.88;;;;;;;8.36;100.00;101675.09;5206614;28;20562;-69
2022/04/26 06:05:20;;;;;;;15.73;5.88;;;;;;;8.34;100.00;101680.59;5206485;28;20022;-69
2022/04/26 06:07:50;;;;;;;10.95;4.75;;;;;;;8.48;100.00;101682.09;5206537;28;20025;-69
2022/04/26 06:10:22;;;;;;;10.35;4.28;;;;;;;8.42;100.00;101682.63;5206612;28;20483;-69
2022/04/26 06:12:53;;;;;;;12.07;4.93;;;;;;;8.40;100.00;101685.44;5193090;28;20456;-68
2022/04/26 06:15:23;;;;;;;9.30;4.95;;;;;;;8.51;100.00;101684.50;5195217;28;20100;-68
2022/04/26 06:17:54;;;;;;;11.07;4.20;;;;;;;8.52;100.00;101679.03;5206405;28;20049;-69
2022/04/26 06:20:25;;;;;;;8.18;3.95;;;;;;;8.52;100.00;101675.50;5206329;28;20497;-69
2022/04/26 06:22:55;;;;;;;11.73;4.43;;;;;;;8.48;100.00;101693.66;5206131;28;20037;-69
2022/04/26 06:25:26;;;;;;;6.97;4.20;;;;;;;8.53;100.00;101695.91;5204622;28;20021;-69
2022/04/26 06:27:56;;;;;;;9.98;4.20;;;;;;;8.56;100.00;101690.31;5206144;28;20087;-69
2022/04/26 06:30:27;;;;;;;8.60;5.30;;;;;;;8.57;100.00;101692.84;5206029;28;20024;-69
2022/04/26 06:32:57;;;;;;;11.35;4.20;;;;;;;8.68;100.00;101701.75;5206101;28;20183;-69
2022/04/26 06:35:28;;;;;;;11.07;4.40;;;;;;;8.67;100.00;101702.75;5205797;28;20037;-69
2022/04/26 06:37:58;;;;;;;9.43;4.65;;;;;;;8.66;100.00;101709.09;5185439;28;20053;-69
2022/04/26 06:40:29;;;;;;;10.90;4.57;;;;;;;8.71;100.00;101706.84;5205871;28;20035;-69
2022/04/26 06:43:00;;;;;;;9.27;4.05;;;;;;;8.82;100.00;101712.13;5205535;28;20084;-68
2022/04/26 06:45:30;;;;;;;8.88;4.30;;;;;;;8.85;100.00;101706.50;5204314;28;20082;-69
2022/04/26 06:48:01;;;;;;;9.23;5.00;;;;;;;9.01;100.00;101716.72;5205808;28;20505;-69
2022/04/26 06:50:31;;;;;;;10.70;4.88;;;;;;;9.17;100.00;101716.19;5205283;28;20487;-69
2022/04/26 06:53:02;;;;;;;7.63;4.45;;;;;;;9.20;100.00;101719.47;5205637;28;20021;-69
2022/04/26 06:55:33;;;;;;;9.90;4.28;;;;;;;9.13;100.00;101725.47;5205554;28;20108;-68
2022/04/26 06:58:04;;;;;;;7.60;4.22;;;;;;;9.22;100.00;101727.34;5205579;28;20034;-69
2022/04/26 07:00:34;;;;;;;9.23;4.63;;;;;;;9.34;100.00;101724.44;5205492;28;20430;-69
2022/04/26 07:03:05;;;;;;;6.45;4.13;;;;;;;9.27;100.00;101727.78;5204898;28;20029;-69
2022/04/26 07:05:35;;;;;;;6.43;4.05;;;;;;;9.32;100.00;101722.88;5205597;28;20039;-69
2022/04/26 07:08:06;;;;;;;10.30;4.72;;;;;;;9.31;100.00;101723.84;5205422;28;20021;-69
2022/04/26 07:10:37;;;;;;;12.27;4.88;;;;;;;9.34;100.00;101734.31;5205589;28;20457;-69
2022/04/26 07:13:07;;;;;;;12.30;4.78;;;;;;;9.47;100.00;101734.88;5205271;28;20017;-69
2022/04/26 07:15:38;;;;;;;8.40;4.57;;;;;;;9.57;100.00;101733.06;5204998;28;20025;-69
2022/04/26 07:18:08;;;;;;;10.68;4.38;;;;;;;9.62;100.00;101739.84;5205203;28;20033;-69
2022/04/26 07:20:40;;;;;;;13.55;4.28;;;;;;;9.76;100.00;101734.94;5205059;28;20128;-70
2022/04/26 07:23:12;;;;;;;9.18;4.72;;;;;;;9.79;100.00;101741.88;5204969;28;20392;-69
2022/04/26 07:25:42;;;;;;;8.82;4.55;;;;;;;9.96;100.00;101751.91;5205253;28;20022;-69
2022/04/26 07:28:13;;;;;;;10.00;4.55;;;;;;;10.12;100.00;101745.97;5204758;28;20025;-69
2022/04/26 07:30:44;;;;;;;13.82;5.22;;;;;;;10.19;100.00;101743.56;5204756;28;20057;-70
2022/04/26 07:36:03;;;;;;;10.70;4.70;;;;;;;10.42;100.00;101753.03;5204611;28;20048;-69
2022/04/26 07:38:34;;;;;;;9.10;4.55;;;;;;;10.57;100.00;101756.13;5190987;28;20061;-69
2022/04/26 07:41:04;;;;;;;9.43;5.18;;;;;;;10.81;100.00;101761.84;5204760;28;20363;-69
2022/04/26 07:43:34;;;;;;;11.82;4.38;;;;;;;10.72;100.00;101764.56;5204482;28;20475;-69
2022/04/26 07:46:06;;;;;;;9.63;4.82;;;;;;;10.80;100.00;101759.34;5203346;28;20025;-69
2022/04/26 07:48:39;;;;;;;9.07;5.00;;;;;;;10.88;100.00;101764.78;5203116;28;20029;-69
2022/04/26 07:51:11;;;;;;;7.90;4.50;;;;;;;11.31;100.00;101766.06;5204308;28;20052;-69
2022/04/26 07:53:41;;;;;;;12.15;4.93;;;;;;;11.99;100.00;101766.50;5204657;28;20470;-69
2022/04/26 07:56:12;;;;;;;12.75;4.95;;;;;;;12.25;100.00;101763.91;5204291;28;20029;-69
2022/04/26 07:58:42;;;;;;;6.20;4.38;;;;;;;12.64;100.00;101772.44;5204870;28;20029;-69
2022/04/26 08:01:12;;;;;;;7.07;4.15;;;;;;;12.57;100.00;101773.25;5203962;28;20039;-69
2022/04/26 08:03:43;;;;;;;8.43;5.07;;;;;;;12.13;100.00;101779.41;5204381;28;20017;-69
2022/04/26 08:06:13;;;;;;;6.93;4.20;;;;;;;11.98;100.00;101786.34;5204139;28;20036;-69
2022/04/26 08:08:44;;;;;;;8.68;4.55;;;;;;;12.18;100.00;101784.34;5204504;28;20108;-69
2022/04/26 08:11:15;;;;;;;8.57;4.70;;;;;;;12.28;100.00;101778.88;5204159;28;20029;-69
2022/04/26 08:13:46;;;;;;;7.57;4.55;;;;;;;12.81;100.00;101783.34;5203272;28;20403;-69
2022/04/26 08:16:16;;;;;;;11.57;4.65;;;;;;;13.56;100.00;101779.06;5204084;28;20053;-69
2022/04/26 08:18:47;;;;;;;11.05;4.38;;;;;;;14.28;100.00;101794.72;5204159;28;20104;-69
2022/04/26 08:21:18;;;;;;;9.13;4.93;;;;;;;14.32;100.00;101794.22;5204048;28;20021;-70
2022/04/26 08:29:27;;;;;;;6.30;3.80;;;;;;;14.04;100.00;101803.59;5204093;28;20022;-70
2022/04/26 08:31:57;;;;;;;11.55;4.40;;;;;;;14.24;100.00;101805.84;5203993;28;20039;-70
2022/04/26 08:34:28;;;;;;;5.03;3.50;;;;;;;14.83;99.44;101805.69;5203795;28;20492;-70
2022/04/26 08:36:58;;;;;;;9.93;4.47;;;;;;;14.53;100.00;101809.94;5191319;28;20022;-70
2022/04/26 08:39:29;;;;;;;8.63;3.75;;;;;;;15.39;98.76;101811.13;5196364;28;20032;-70
2022/04/26 08:42:01;;;;;;;8.88;4.40;;;;;;;15.91;93.76;101816.84;5203968;28;20124;-70
2022/04/26 08:44:31;;;;;;;6.10;3.88;;;;;;;15.95;98.48;101820.88;5202022;28;20116;-70
2022/04/26 08:52:46;;;;;;;9.82;4.60;;;;;;;15.70;100.00;101817.44;5203670;28;20033;-70
2022/04/26 08:55:17;;;;;;;8.30;3.90;;;;;;;16.54;94.86;101826.56;5203425;28;20068;-70
2022/04/26 08:57:47;;;;;;;6.05;3.58;;;;;;;16.86;90.05;101831.91;5203443;28;20112;-70
2022/04/26 09:00:18;;;;;;;10.18;4.10;;;;;;;17.52;86.03;101830.19;5203759;28;20422;-70
2022/04/26 09:03:01;;;;;;;10.02;4.32;;;;;;;17.33;85.03;101829.72;5203522;28;20025;-70
2022/04/26 09:05:32;;;;;;;7.07;4.13;;;;;;;17.70;85.72;101822.50;5203412;28;20032;-70
2022/04/26 09:08:20;;;;;;;8.25;4.22;;;;;;;18.42;84.78;101831.66;5203160;28;20021;-70
2022/04/26 09:10:51;;;;;;;7.43;3.90;;;;;;;18.16;79.79;101826.81;5203351;28;20040;-70
2022/04/26 09:13:23;;;;;;;9.30;4.13;;;;;;;18.17;76.64;101836.63;5203628;28;20471;-70
2022/04/26 09:15:57;;;;;;;8.75;4.03;;;;;;;18.51;80.27;101835.94;5191374;28;20391;-70
2022/04/26 09:18:30;;;;;;;12.68;4.25;;;;;;;19.05;71.82;101838.09;5208320;28;20028;-70
2022/04/26 09:21:19;;;;;;;10.20;4.40;;;;;;;19.39;71.06;101840.84;5203338;28;20027;-71
2022/04/26 09:23:50;;;;;;;9.82;3.60;;;;;;;19.50;64.67;101844.03;5203850;28;20413;-70
2022/04/26 09:26:20;;;;;;;8.80;3.90;;;;;;;19.01;62.34;101836.81;5207217;28;20025;-70
2022/04/26 09:28:51;;;;;;;8.18;3.80;;;;;;;18.32;68.94;101841.00;5206967;28;20045;-70
2022/04/26 09:31:25;;;;;;;9.77;4.93;;;;;;;17.26;73.31;101849.63;5207401;28;20113;-70
2022/04/26 09:34:04;;;;;;;7.45;3.85;;;;;;;17.37;72.07;101841.06;5205953;28;20108;-70
2022/04/26 09:36:52;;;;;;;8.32;4.20;;;;;;;17.57;74.96;101854.88;5204866;28;20060;-70
2022/04/26 09:39:23;;;;;;;9.45;3.95;;;;;;;18.09;72.69;101846.59;5198107;28;20037;-70
2022/04/26 09:41:54;;;;;;;8.30;4.32;;;;;;;17.59;76.00;101853.66;5207513;28;20101;-70
2022/04/26 09:44:43;;;;;;;9.40;4.20;;;;;;;17.53;78.37;101856.31;5206007;28;20114;-70
2022/04/26 09:47:13;;;;;;;7.07;4.20;;;;;;;17.42;74.51;101857.63;5196727;28;20026;-70
2022/04/26 09:49:44;;;;;;;9.80;4.00;;;;;;;18.44;73.08;101864.94;5206248;28;20103;-70
2022/04/26 09:52:18;;;;;;;11.40;5.05;;;;;;;18.41;72.14;101859.88;5206905;28;20100;-70
2022/04/26 09:54:50;;;;;;;7.60;3.75;;;;;;;18.31;68.38;101855.59;5206822;28;20036;-70
2022/04/26 09:57:21;;;;;;;5.07;4.18;;;;;;;17.44;73.67;101866.41;5206734;28;20028;-70
2022/04/26 09:59:52;;;;;;;8.88;5.25;;;;;;;16.92;75.64;101852.84;5206531;28;20034;-70
2022/04/26 10:02:25;;;;;;;10.18;4.95;;;;;;;16.56;84.71;101853.47;5206421;28;20033;-70
2022/04/26 10:05:01;;;;;;;9.73;5.60;;;;;;;16.96;79.61;101859.59;5206757;28;20360;-70
2022/04/26 10:07:36;;;;;;;11.05;4.70;;;;;;;16.44;82.75;101863.88;5219406;28;20026;-70
2022/04/26 10:10:07;;;;;;;11.52;5.30;;;;;;;15.82;88.99;101860.38;5206778;28;20053;-70
2022/04/26 10:12:39;;;;;;;12.10;5.28;;;;;;;15.56;87.96;101856.03;5206037;28;20068;-69
2022/04/26 10:15:10;;;;;;;11.25;5.38;;;;;;;15.30;96.21;101861.69;5203938;28;20029;-70
2022/04/26 10:17:48;;;;;;;9.95;6.50;;;;;;;15.54;100.00;101853.50;5206719;28;20023;-70
2022/04/26 10:20:39;;;;;;;9.48;4.95;;;;;;;15.90;100.00;101858.44;5206208;28;20037;-70
2022/04/26 10:23:09;;;;;;;9.68;5.18;;;;;;;16.41;97.71;101869.66;5205886;28;20061;-70
2022/04/26 10:25:40;;;;;;;11.80;5.38;;;;;;;17.20;86.95;101872.06;5206055;28;20028;-70
2022/04/26 10:28:23;;;;;;;12.70;5.53;;;;;;;17.26;89.54;101874.88;5206113;28;20037;-71
2022/04/26 10:30:55;;;;;;;13.55;5.43;;;;;;;16.65;84.73;101863.22;5206588;28;20518;-70
2022/04/26 10:33:44;;;;;;;10.90;5.40;;;;;;;15.68;85.77;101856.53;5205886;28;20017;-70
2022/04/26 10:36:33;;;;;;;12.18;5.85;;;;;;;15.32;89.20;101866.94;5205828;28;20364;-69
2022/04/26 10:39:05;;;;;;;13.43;5.47;;;;;;;15.20;97.27;101875.38;5194639;28;20361;-69
2022/04/26 10:41:38;;;;;;;9.98;5.80;;;;;;;15.38;100.00;101880.59;5205623;28;20033;-70
2022/04/26 10:44:30;;;;;;;9.30;5.32;;;;;;;15.59;96.63;101888.13;5205791;28;20502;-70
2022/04/26 10:47:01;;;;;;;23.40;4.68;;;;;;;15.80;85.26;101885.72;5205849;28;20517;-69
2022/04/26 10:49:32;;;;;;;8.32;4.78;;;;;;;15.55;91.87;101886.78;5206070;28;20021;-70
2022/04/26 10:52:23;;;;;;;9.18;4.97;;;;;;;15.66;94.20;101891.00;5205684;28;20033;-70
2022/04/26 10:57:28;;;;;;;6.47;4.88;;;;;;;16.22;93.09;101889.09;5205714;28;20037;-70
2022/04/26 11:00:01;;;;;;;9.40;4.75;;;;;;;16.70;92.97;101893.31;5205499;28;20013;-70
2022/04/26 11:02:35;;;;;;;7.53;4.50;;;;;;;17.27;89.04;101894.69;5205462;28;20029;-71
2022/04/26 11:05:09;;;;;;;9.57;4.50;;;;;;;18.25;73.39;101894.41;5205409;28;20053;-71
2022/04/26 11:07:42;;;;;;;6.22;4.07;;;;;;;17.62;71.19;101885.03;5205572;28;20025;-70
2022/04/26 11:10:16;;;;;;;7.57;4.30;;;;;;;16.81;73.84;101897.50;5205416;28;20063;-70
2022/04/26 11:12:47;;;;;;;10.48;4.47;;;;;;;16.52;74.14;101901.75;5205210;28;20372;-70
2022/04/26 11:15:21;;;;;;;7.43;4.47;;;;;;;16.17;79.04;101892.34;5204747;28;20029;-70
2022/04/26 11:17:52;;;;;;;6.45;3.95;;;;;;;16.32;77.62;101889.72;5205355;28;20098;-70
2022/04/26 11:20:24;;;;;;;7.50;3.88;;;;;;;16.29;68.25;101896.31;5204883;28;20018;-70
2022/04/26 11:22:57;;;;;;;11.80;3.78;;;;;;;16.08;67.00;101893.38;5205231;28;20047;-70
2022/04/26 11:28:17;;;;;;;10.57;4.30;;;;;;;16.00;69.34;101896.13;5204996;28;20029;-70
2022/04/26 11:33:48;;;;;;;7.00;3.10;;;;;;;15.63;70.93;101902.16;5204848;28;20445;-70
2022/04/26 11:36:18;;;;;;;5.90;3.50;;;;;;;15.91;75.44;101906.13;5198077;28;20033;-70
2022/04/26 11:39:08;;;;;;;7.82;3.30;;;;;;;16.62;65.87;101908.78;5191916;28;20037;-70
2022/04/26 11:41:38;;;;;;;10.63;3.72;;;;;;;17.03;68.81;101904.78;5204719;28;20021;-70
2022/04/26 11:44:08;;;;;;;7.03;2.92;;;;;;;17.29;67.45;101912.50;5204214;28;20315;-70
2022/04/26 11:46:57;;;;;;;3.80;2.80;;;;;;;17.01;61.30;101908.69;5202689;28;20017;-71
2022/04/26 11:49:40;;;;;;;4.82;2.97;;;;;;;16.74;64.18;101905.50;5204463;28;20391;-70
2022/04/26 11:52:11;;;;;;;9.32;3.33;;;;;;;16.34;66.15;101917.44;5204738;28;20104;-70
2022/04/26 11:54:41;;;;;;;4.47;3.10;;;;;;;16.16;66.59;101922.25;5204239;28;20159;-70
2022/04/26 11:57:13;;;;;;;6.13;2.90;;;;;;;16.23;65.98;101925.97;5204885;28;20033;-70
2022/04/26 11:59:44;;;;;;;4.45;3.13;;;;;;;16.32;66.97;101916.78;5204248;28;20110;-70
2022/04/26 12:02:14;;;;;;;7.25;3.10;;;;;;;16.41;68.20;101920.25;5204497;28;20100;-70
2022/04/26 12:04:45;;;;;;;5.85;2.95;;;;;;;16.48;65.97;101924.81;5204127;28;20025;-71
2022/04/26 12:07:16;;;;;;;7.05;2.72;;;;;;;16.40;64.21;101926.72;5203854;28;20106;-70
2022/04/26 12:09:47;;;;;;;6.28;2.47;;;;;;;16.52;63.54;101928.00;5204324;28;20017;-70
2022/04/26 12:12:18;;;;;;;8.07;2.58;;;;;;;16.60;62.73;101919.81;5204307;28;20033;-71
2022/04/26 12:14:50;;;;;;;5.97;2.30;;;;;;;16.84;64.04;101924.25;5203819;28;20025;-71
2022/04/26 12:20:10;;;;;;;6.57;2.78;;;;;;;17.00;62.29;101923.25;5203912;28;20029;-70
2022/04/26 12:22:41;;;;;;;7.88;3.10;;;;;;;17.10;63.44;101926.56;5203580;28;20060;-70
2022/04/26 12:25:14;;;;;;;6.95;3.47;;;;;;;17.21;66.41;101927.97;5192664;28;20025;-70
2022/04/26 12:27:45;;;;;;;8.55;3.42;;;;;;;17.39;61.33;101919.53;5201502;28;20491;-70
2022/04/26 12:30:15;;;;;;;7.70;3.58;;;;;;;17.06;62.50;101919.81;5201027;28;20018;-70
2022/04/26 12:32:46;;;;;;;6.50;4.03;;;;;;;17.00;68.19;101915.13;5201617;28;20104;-70
2022/04/26 12:35:20;;;;;;;10.82;4.38;;;;;;;16.97;66.69;101912.81;5201234;28;20018;-70
2022/04/26 12:38:09;;;;;;;9.48;4.68;;;;;;;16.69;65.28;101907.91;5189107;28;20033;-70
2022/04/26 12:40:40;;;;;;;7.30;4.57;;;;;;;16.25;65.57;101905.81;5189897;28;20546;-70
2022/04/26 12:43:29;;;;;;;13.25;4.32;;;;;;;16.07;70.44;101915.22;5201092;28;20116;-70
2022/04/26 12:46:06;;;;;;;8.35;4.65;;;;;;;16.45;73.33;101917.03;5200186;28;20494;-70
2022/04/26 12:51:27;;;;;;;5.80;4.05;;;;;;;16.57;69.17;101926.44;5201278;28;20025;-70
2022/04/26 12:54:12;;;;;;;8.45;4.22;;;;;;;16.13;67.45;101920.78;5201439;28;20032;-70
2022/04/26 12:57:04;;;;;;;9.77;4.38;;;;;;;16.20;68.03;101924.44;5201735;28;20017;-70
2022/04/26 12:59:36;;;;;;;7.97;5.20;;;;;;;16.18;73.02;101912.97;5204855;28;20033;-70
2022/04/26 13:02:06;;;;;;;8.00;5.00;;;;;;;16.62;68.91;101927.75;5205050;28;20025;-69
2022/04/26 13:04:37;;;;;;;11.57;4.10;;;;;;;16.72;68.48;101926.53;5205453;28;20048;-69
2022/04/26 13:07:07;;;;;;;10.50;4.20;;;;;;;16.78;67.52;101920.41;5205635;28;20114;-70
2022/04/26 13:09:38;;;;;;;6.07;3.50;;;;;;;16.99;67.18;101924.28;5205380;28;20104;-70
2022/04/26 13:12:09;;;;;;;6.78;4.03;;;;;;;17.42;64.35;101927.28;5204900;28;20026;-70
2022/04/26 13:14:39;;;;;;;7.20;4.07;;;;;;;17.43;63.30;101927.09;5214027;28;20361;-70
2022/04/26 13:17:10;;;;;;;6.75;3.42;;;;;;;17.33;63.05;101915.69;5210057;28;20021;-70
2022/04/26 13:19:40;;;;;;;7.03;3.80;;;;;;;17.41;61.78;101931.00;5222388;28;20025;-70
2022/04/26 13:22:11;;;;;;;8.60;3.97;;;;;;;17.31;62.30;101929.41;5207422;28;20112;-70
2022/04/26 13:24:42;;;;;;;4.68;3.70;;;;;;;17.32;64.58;101922.97;5204940;28;20061;-70
2022/04/26 13:27:12;;;;;;;7.28;4.25;;;;;;;17.75;61.61;101925.09;5205173;28;20623;-70
2022/04/26 13:29:43;;;;;;;9.45;3.78;;;;;;;17.14;59.32;101919.75;5205379;28;20049;-69
2022/04/26 13:32:13;;;;;;;8.32;3.90;;;;;;;16.65;60.58;101921.97;5204698;28;20083;-70
2022/04/26 13:34:45;;;;;;;7.70;4.10;;;;;;;16.57;61.38;101922.91;5204590;28;20032;-70
2022/04/26 13:37:17;;;;;;;9.73;4.25;;;;;;;16.39;61.56;101914.19;5204618;28;20433;-70
2022/04/26 13:39:49;;;;;;;12.30;4.85;;;;;;;16.02;62.48;101927.41;5201886;28;20103;-69
2022/04/26 13:42:23;;;;;;;8.60;4.22;;;;;;;16.08;63.72;101922.31;5204336;28;20287;-69
2022/04/26 13:44:54;;;;;;;6.63;3.95;;;;;;;16.12;63.80;101929.91;5204016;28;20029;-70
2022/04/26 13:47:26;;;;;;;7.65;4.55;;;;;;;16.21;65.18;101923.41;5204740;28;20386;-69
2022/04/26 13:49:57;;;;;;;11.07;3.97;;;;;;;16.24;63.69;101919.53;5204523;28;20096;-69
2022/04/26 13:52:27;;;;;;;10.60;4.07;;;;;;;16.22;62.46;101930.53;5204319;28;20040;-69
2022/04/26 13:54:58;;;;;;;10.63;3.88;;;;;;;16.20;64.14;101919.03;5204362;28;20483;-70
2022/04/26 13:57:28;;;;;;;8.73;4.03;;;;;;;16.55;67.34;101920.34;5204012;28;20029;-70
2022/04/26 13:59:59;;;;;;;9.98;4.15;;;;;;;16.87;67.28;101926.59;5198900;28;20059;-70
2022/04/26 14:02:29;;;;;;;7.88;3.58;;;;;;;16.53;62.77;101924.28;5201248;28;20025;-69
2022/04/26 14:05:00;;;;;;;7.03;3.83;;;;;;;16.48;62.36;101921.25;5203945;28;20116;-70
2022/04/26 14:07:30;;;;;;;7.38;3.90;;;;;;;16.34;62.72;101924.72;5204246;28;20045;-70
2022/04/26 14:10:01;;;;;;;9.68;4.03;;;;;;;16.04;66.92;101925.38;5203224;28;20068;-69
2022/04/26 14:12:31;;;;;;;7.13;3.97;;;;;;;16.07;66.75;101921.47;5203724;28;20033;-69
2022/04/26 14:23:32;;;;;;;6.93;4.45;;;;;;;16.57;64.72;101917.47;5203237;28;20108;-69
2022/04/26 14:26:03;;;;;;;8.18;4.43;;;;;;;16.92;60.70;101916.06;5203617;28;20447;-70
2022/04/26 14:28:34;;;;;;;7.88;4.35;;;;;;;16.84;63.62;101916.13;5203147;28;20045;-69
2022/04/26 14:31:04;;;;;;;8.70;4.32;;;;;;;16.53;63.38;101930.53;5203072;28;20116;-70
2022/04/26 14:33:35;;;;;;;10.65;3.75;;;;;;;16.46;64.33;101921.41;5203345;28;20014;-69
2022/04/26 14:36:05;;;;;;;5.75;3.50;;;;;;;16.66;62.77;101919.09;5203271;28;20021;-71
2022/04/26 14:38:36;;;;;;;6.97;3.90;;;;;;;16.80;64.73;101926.47;5189661;28;20441;-71
2022/04/26 14:41:06;;;;;;;7.90;3.92;;;;;;;17.00;63.67;101912.41;5202860;28;20025;-71
2022/04/26 14:43:37;;;;;;;8.77;3.95;;;;;;;16.99;63.14;101927.84;5202476;28;20368;-71
2022/04/26 14:46:07;;;;;;;12.73;4.15;;;;;;;17.07;64.86;101930.50;5201222;28;20029;-71
2022/04/26 14:48:38;;;;;;;7.47;4.30;;;;;;;17.44;62.39;101927.94;5203511;28;20419;-70
2022/04/26 14:51:10;;;;;;;5.55;4.05;;;;;;;17.35;63.85;101925.31;5202772;28;20414;-71
2022/04/26 14:53:40;;;;;;;6.35;3.50;;;;;;;17.37;59.17;101936.00;5202793;28;20022;-71
2022/04/26 14:56:11;;;;;;;7.60;4.00;;;;;;;17.09;61.76;101930.31;5203083;28;20478;-70
2022/04/26 14:58:41;;;;;;;7.97;4.00;;;;;;;17.01;60.88;101928.50;5203310;28;20021;-71
2022/04/26 15:01:12;;;;;;;7.40;4.68;;;;;;;16.75;61.17;101926.16;5202626;28;20044;-71
2022/04/26 15:03:44;;;;;;;8.10;4.40;;;;;;;16.73;61.85;101921.97;5202789;28;20426;-71
2022/04/26 15:06:14;;;;;;;13.13;4.45;;;;;;;16.61;65.43;101924.19;5202107;28;20179;-71
2022/04/26 15:11:34;;;;;;;12.70;4.78;;;;;;;16.40;66.81;101924.00;5202348;28;20029;-71
2022/04/26 15:16:54;;;;;;;9.60;4.47;;;;;;;16.88;68.56;101930.16;5202979;28;20483;-70
2022/04/26 15:19:25;;;;;;;8.70;3.92;;;;;;;16.87;66.47;101931.16;5202410;28;20037;-71
2022/04/26 15:21:55;;;;;;;9.95;4.57;;;;;;;16.78;66.30;101923.09;5200890;28;20041;-71
2022/04/26 15:24:25;;;;;;;9.98;4.60;;;;;;;16.82;65.20;101927.16;5202203;28;20563;-71
2022/04/26 15:26:56;;;;;;;9.20;5.35;;;;;;;16.56;65.62;101923.88;5202038;28;20245;-71
2022/04/26 15:29:27;;;;;;;10.57;4.78;;;;;;;16.62;66.36;101925.03;5202132;28;20031;-71
2022/04/26 15:31:57;;;;;;;10.60;5.03;;;;;;;16.68;64.47;101927.88;5201909;28;20406;-70
2022/04/26 15:34:28;;;;;;;8.02;4.60;;;;;;;16.63;62.68;101930.28;5202166;28;20090;-71
2022/04/26 15:36:58;;;;;;;7.57;4.93;;;;;;;16.63;62.50;101929.47;5196378;28;20022;-71
2022/04/26 15:39:29;;;;;;;8.25;4.75;;;;;;;16.48;63.34;101932.09;5194006;28;20363;-70
2022/04/26 15:42:00;;;;;;;11.15;4.90;;;;;;;16.29;66.19;101928.81;5200347;28;20090;-71
2022/04/26 15:44:31;;;;;;;8.85;5.00;;;;;;;16.29;64.39;101930.66;5200475;28;20120;-71
2022/04/26 15:47:01;;;;;;;9.88;4.93;;;;;;;16.46;64.64;101934.13;5201919;28;20124;-71
2022/04/26 15:49:32;;;;;;;10.35;4.70;;;;;;;16.84;64.70;101935.09;5201677;28;20033;-71
2022/04/26 15:52:03;;;;;;;12.57;5.07;;;;;;;16.90;65.20;101937.06;5201110;28;20032;-70
2022/04/26 15:54:35;;;;;;;10.00;5.13;;;;;;;16.89;65.92;101929.97;5201505;28;20543;-71
2022/04/26 15:57:06;;;;;;;6.90;4.25;;;;;;;16.87;64.90;101931.16;5201955;28;20022;-71
2022/04/26 15:59:36;;;;;;;8.13;4.80;;;;;;;17.29;57.79;101926.03;5202068;28;20037;-71
2022/04/26 16:02:07;;;;;;;10.77;4.53;;;;;;;17.28;59.19;101929.78;5201259;28;20033;-70
2022/04/26 16:04:38;;;;;;;9.70;4.63;;;;;;;16.99;59.49;101919.72;5200971;28;20057;-70